sensor_id;sensor_type;location;lat;lon;timestamp;P1;durP1;ratioP1;P2;durP2;ratioP2
3333;SDS011;1679;50.392;8.008;2023-04-25T00:02:20;13.83;;;11.07;;
3333;SDS011;1679;50.392;8.008;2023-04-25T00:04:47;11.00;;;9.90;;
3333;SDS011;1679;50.392;8.008;2023-04-25T00:07:14;12.83;;;10.43;;
3333;SDS011;1679;50.392;8.008;2023-04-25T00:09:41;14.37;;;10.20;;
3333;SDS011;1679;50.392;8.008;2023-04-25T00:12:07;13.97;;;10.60;;
3333;SDS011;1679;50.392;8.008;2023-04-25T00:14:33;10.83;;;9.43;;
3333;SDS011;1679;50.392;8.008;2023-04-25T00:16:59;11.30;;;9.33;;
3333;SDS011;1679;50.392;8.008;2023-04-25T00:19:24;11.33;;;9.17;;
3333;SDS011;1679;50.392;8.008;2023-04-25T00:21:51;13.73;;;8.23;;
3333;SDS011;1679;50.392;8.008;2023-04-25T00:24:18;12.10;;;9.57;;
3333;SDS011;1679;50.392;8.008;2023-04-25T00:26:44;10.53;;;9.30;;
3333;SDS011;1679;50.392;8.008;2023-04-25T00:29:09;13.90;;;10.13;;
3333;SDS011;1679;50.392;8.008;2023-04-25T00:31:35;11.73;;;9.90;;
3333;SDS011;1679;50.392;8.008;2023-04-25T00:34:00;11.97;;;9.90;;
3333;SDS011;1679;50.392;8.008;2023-04-25T00:36:26;11.77;;;8.53;;
3333;SDS011;1679;50.392;8.008;2023-04-25T00:38:52;14.37;;;9.17;;
3333;SDS011;1679;50.392;8.008;2023-04-25T00:41:19;9.90;;;8.80;;
3333;SDS011;1679;50.392;8.008;2023-04-25T00:43:45;12.20;;;9.30;;
3333;SDS011;1679;50.392;8.008;2023-04-25T00:46:13;14.23;;;9.90;;
3333;SDS011;1679;50.392;8.008;2023-04-25T00:48:38;11.03;;;9.40;;
3333;SDS011;1679;50.392;8.008;2023-04-25T00:51:04;13.17;;;8.90;;
3333;SDS011;1679;50.392;8.008;2023-04-25T00:53:30;11.40;;;9.37;;
3333;SDS011;1679;50.392;8.008;2023-04-25T00:55:57;14.57;;;11.30;;
3333;SDS011;1679;50.392;8.008;2023-04-25T00:58:23;11.07;;;9.40;;
3333;SDS011;1679;50.392;8.008;2023-04-25T01:00:49;13.53;;;9.90;;
3333;SDS011;1679;50.392;8.008;2023-04-25T01:03:17;11.30;;;9.40;;
3333;SDS011;1679;50.392;8.008;2023-04-25T01:05:44;10.60;;;8.83;;
3333;SDS011;1679;50.392;8.008;2023-04-25T01:08:10;14.00;;;9.53;;
3333;SDS011;1679;50.392;8.008;2023-04-25T01:10:37;12.97;;;9.00;;
3333;SDS011;1679;50.392;8.008;2023-04-25T01:13:03;10.57;;;8.97;;
3333;SDS011;1679;50.392;8.008;2023-04-25T01:15:29;11.33;;;8.07;;
3333;SDS011;1679;50.392;8.008;2023-04-25T01:17:54;10.50;;;8.67;;
3333;SDS011;1679;50.392;8.008;2023-04-25T01:20:21;13.57;;;9.03;;
3333;SDS011;1679;50.392;8.008;2023-04-25T01:22:49;12.37;;;8.67;;
3333;SDS011;1679;50.392;8.008;2023-04-25T01:25:17;12.27;;;9.03;;
3333;SDS011;1679;50.392;8.008;2023-04-25T01:27:43;9.97;;;8.90;;
3333;SDS011;1679;50.392;8.008;2023-04-25T01:30:09;11.60;;;8.33;;
3333;SDS011;1679;50.392;8.008;2023-04-25T01:32:35;14.07;;;9.23;;
3333;SDS011;1679;50.392;8.008;2023-04-25T01:35:04;14.23;;;8.87;;
3333;SDS011;1679;50.392;8.008;2023-04-25T01:37:34;9.80;;;8.80;;
3333;SDS011;1679;50.392;8.008;2023-04-25T01:40:01;10.77;;;8.87;;
3333;SDS011;1679;50.392;8.008;2023-04-25T01:42:27;13.40;;;9.47;;
3333;SDS011;1679;50.392;8.008;2023-04-25T01:44:52;12.53;;;9.20;;
3333;SDS011;1679;50.392;8.008;2023-04-25T01:47:18;11.37;;;8.60;;
3333;SDS011;1679;50.392;8.008;2023-04-25T01:49:43;12.70;;;8.60;;
3333;SDS011;1679;50.392;8.008;2023-04-25T01:52:09;12.40;;;9.30;;
3333;SDS011;1679;50.392;8.008;2023-04-25T01:54:36;13.37;;;8.17;;
3333;SDS011;1679;50.392;8.008;2023-04-25T01:57:01;8.70;;;7.80;;
3333;SDS011;1679;50.392;8.008;2023-04-25T01:59:28;9.60;;;8.37;;
3333;SDS011;1679;50.392;8.008;2023-04-25T02:01:53;9.13;;;7.23;;
3333;SDS011;1679;50.392;8.008;2023-04-25T02:04:19;12.90;;;7.17;;
3333;SDS011;1679;50.392;8.008;2023-04-25T02:06:44;11.60;;;7.67;;
3333;SDS011;1679;50.392;8.008;2023-04-25T02:09:10;11.60;;;6.53;;
3333;SDS011;1679;50.392;8.008;2023-04-25T02:11:36;11.83;;;7.60;;
3333;SDS011;1679;50.392;8.008;2023-04-25T02:14:01;9.60;;;6.57;;
3333;SDS011;1679;50.392;8.008;2023-04-25T02:16:27;10.77;;;7.43;;
3333;SDS011;1679;50.392;8.008;2023-04-25T02:18:52;10.87;;;7.20;;
3333;SDS011;1679;50.392;8.008;2023-04-25T02:21:18;11.73;;;6.80;;
3333;SDS011;1679;50.392;8.008;2023-04-25T02:23:44;10.60;;;6.50;;
3333;SDS011;1679;50.392;8.008;2023-04-25T02:26:13;11.80;;;6.77;;
3333;SDS011;1679;50.392;8.008;2023-04-25T02:28:39;15.07;;;5.63;;
3333;SDS011;1679;50.392;8.008;2023-04-25T02:31:05;10.90;;;6.87;;
3333;SDS011;1679;50.392;8.008;2023-04-25T02:33:30;9.07;;;5.83;;
3333;SDS011;1679;50.392;8.008;2023-04-25T02:35:56;10.67;;;5.53;;
3333;SDS011;1679;50.392;8.008;2023-04-25T02:38:21;12.17;;;5.60;;
3333;SDS011;1679;50.392;8.008;2023-04-25T02:40:47;11.23;;;6.20;;
3333;SDS011;1679;50.392;8.008;2023-04-25T02:43:12;17.23;;;6.20;;
3333;SDS011;1679;50.392;8.008;2023-04-25T02:45:38;13.70;;;5.30;;
3333;SDS011;1679;50.392;8.008;2023-04-25T02:48:03;11.33;;;6.57;;
3333;SDS011;1679;50.392;8.008;2023-04-25T02:50:29;9.70;;;5.67;;
3333;SDS011;1679;50.392;8.008;2023-04-25T02:52:55;11.80;;;5.93;;
3333;SDS011;1679;50.392;8.008;2023-04-25T02:55:20;10.47;;;6.20;;
3333;SDS011;1679;50.392;8.008;2023-04-25T02:57:47;6.10;;;5.50;;
3333;SDS011;1679;50.392;8.008;2023-04-25T03:00:12;14.33;;;5.77;;
3333;SDS011;1679;50.392;8.008;2023-04-25T03:02:39;14.50;;;7.00;;
3333;SDS011;1679;50.392;8.008;2023-04-25T03:05:04;9.87;;;5.70;;
3333;SDS011;1679;50.392;8.008;2023-04-25T03:07:30;12.37;;;5.80;;
3333;SDS011;1679;50.392;8.008;2023-04-25T03:09:56;8.10;;;5.67;;
3333;SDS011;1679;50.392;8.008;2023-04-25T03:12:22;10.03;;;5.67;;
3333;SDS011;1679;50.392;8.008;2023-04-25T03:14:47;9.40;;;5.97;;
3333;SDS011;1679;50.392;8.008;2023-04-25T03:17:13;9.10;;;6.30;;
3333;SDS011;1679;50.392;8.008;2023-04-25T03:19:39;8.60;;;5.20;;
3333;SDS011;1679;50.392;8.008;2023-04-25T03:22:04;10.43;;;5.33;;
3333;SDS011;1679;50.392;8.008;2023-04-25T03:24:30;7.37;;;5.37;;
3333;SDS011;1679;50.392;8.008;2023-04-25T03:26:56;7.77;;;5.77;;
3333;SDS011;1679;50.392;8.008;2023-04-25T03:29:22;10.67;;;6.93;;
3333;SDS011;1679;50.392;8.008;2023-04-25T03:31:50;11.20;;;5.50;;
3333;SDS011;1679;50.392;8.008;2023-04-25T03:34:16;11.47;;;6.57;;
3333;SDS011;1679;50.392;8.008;2023-04-25T03:36:41;7.73;;;6.07;;
3333;SDS011;1679;50.392;8.008;2023-04-25T03:39:07;15.17;;;7.70;;
3333;SDS011;1679;50.392;8.008;2023-04-25T03:41:32;11.20;;;6.80;;
3333;SDS011;1679;50.392;8.008;2023-04-25T03:43:58;10.77;;;7.47;;
3333;SDS011;1679;50.392;8.008;2023-04-25T03:46:23;13.90;;;7.13;;
3333;SDS011;1679;50.392;8.008;2023-04-25T03:48:49;10.23;;;7.63;;
3333;SDS011;1679;50.392;8.008;2023-04-25T03:51:14;16.00;;;8.40;;
3333;SDS011;1679;50.392;8.008;2023-04-25T03:53:40;15.53;;;7.67;;
3333;SDS011;1679;50.392;8.008;2023-04-25T03:56:06;15.70;;;7.83;;
3333;SDS011;1679;50.392;8.008;2023-04-25T03:58:31;14.60;;;6.93;;
3333;SDS011;1679;50.392;8.008;2023-04-25T04:00:57;10.17;;;7.70;;
3333;SDS011;1679;50.392;8.008;2023-04-25T04:03:22;15.00;;;7.63;;
3333;SDS011;1679;50.392;8.008;2023-04-25T04:05:48;11.63;;;6.53;;
3333;SDS011;1679;50.392;8.008;2023-04-25T04:08:13;13.63;;;7.10;;
3333;SDS011;1679;50.392;8.008;2023-04-25T04:10:39;14.37;;;7.20;;
3333;SDS011;1679;50.392;8.008;2023-04-25T04:13:05;16.90;;;8.20;;
3333;SDS011;1679;50.392;8.008;2023-04-25T04:15:31;19.00;;;7.27;;
3333;SDS011;1679;50.392;8.008;2023-04-25T04:17:57;17.33;;;8.30;;
3333;SDS011;1679;50.392;8.008;2023-04-25T04:20:27;17.27;;;8.53;;
3333;SDS011;1679;50.392;8.008;2023-04-25T04:22:53;13.30;;;7.80;;
3333;SDS011;1679;50.392;8.008;2023-04-25T04:25:18;14.93;;;8.17;;
3333;SDS011;1679;50.392;8.008;2023-04-25T04:27:44;13.97;;;7.90;;
3333;SDS011;1679;50.392;8.008;2023-04-25T04:30:11;13.97;;;7.40;;
3333;SDS011;1679;50.392;8.008;2023-04-25T04:32:37;14.93;;;8.20;;
3333;SDS011;1679;50.392;8.008;2023-04-25T04:35:03;18.70;;;8.60;;
3333;SDS011;1679;50.392;8.008;2023-04-25T04:37:29;13.83;;;8.47;;
3333;SDS011;1679;50.392;8.008;2023-04-25T04:39:55;18.20;;;9.67;;
3333;SDS011;1679;50.392;8.008;2023-04-25T04:42:21;30.57;;;16.60;;
3333;SDS011;1679;50.392;8.008;2023-04-25T04:44:46;52.27;;;31.93;;
3333;SDS011;1679;50.392;8.008;2023-04-25T04:47:13;46.33;;;25.10;;
3333;SDS011;1679;50.392;8.008;2023-04-25T04:49:39;57.87;;;30.90;;
3333;SDS011;1679;50.392;8.008;2023-04-25T04:52:04;17.30;;;10.87;;
3333;SDS011;1679;50.392;8.008;2023-04-25T04:54:30;15.40;;;8.40;;
3333;SDS011;1679;50.392;8.008;2023-04-25T04:56:56;15.97;;;8.23;;
3333;SDS011;1679;50.392;8.008;2023-04-25T04:59:21;15.83;;;9.43;;
3333;SDS011;1679;50.392;8.008;2023-04-25T05:01:47;19.70;;;8.83;;
3333;SDS011;1679;50.392;8.008;2023-04-25T05:04:12;17.03;;;9.23;;
3333;SDS011;1679;50.392;8.008;2023-04-25T05:06:37;20.43;;;8.90;;
3333;SDS011;1679;50.392;8.008;2023-04-25T05:09:03;12.33;;;8.03;;
3333;SDS011;1679;50.392;8.008;2023-04-25T05:11:29;22.63;;;8.90;;
3333;SDS011;1679;50.392;8.008;2023-04-25T05:13:54;19.70;;;11.30;;
3333;SDS011;1679;50.392;8.008;2023-04-25T05:16:20;20.07;;;9.60;;
3333;SDS011;1679;50.392;8.008;2023-04-25T05:18:46;16.97;;;9.20;;
3333;SDS011;1679;50.392;8.008;2023-04-25T05:21:12;17.00;;;7.67;;
3333;SDS011;1679;50.392;8.008;2023-04-25T05:23:38;13.63;;;7.50;;
3333;SDS011;1679;50.392;8.008;2023-04-25T05:26:03;14.83;;;7.87;;
3333;SDS011;1679;50.392;8.008;2023-04-25T05:28:29;19.80;;;7.20;;
3333;SDS011;1679;50.392;8.008;2023-04-25T05:30:55;13.53;;;7.37;;
3333;SDS011;1679;50.392;8.008;2023-04-25T05:33:20;16.93;;;7.47;;
3333;SDS011;1679;50.392;8.008;2023-04-25T05:35:46;14.23;;;7.60;;
3333;SDS011;1679;50.392;8.008;2023-04-25T05:38:11;13.13;;;6.30;;
3333;SDS011;1679;50.392;8.008;2023-04-25T05:40:37;10.53;;;5.93;;
3333;SDS011;1679;50.392;8.008;2023-04-25T05:43:03;15.87;;;6.67;;
3333;SDS011;1679;50.392;8.008;2023-04-25T05:45:28;12.47;;;5.60;;
3333;SDS011;1679;50.392;8.008;2023-04-25T05:47:54;10.77;;;6.30;;
3333;SDS011;1679;50.392;8.008;2023-04-25T05:50:20;14.77;;;7.70;;
3333;SDS011;1679;50.392;8.008;2023-04-25T05:52:45;12.40;;;6.40;;
3333;SDS011;1679;50.392;8.008;2023-04-25T05:55:11;12.90;;;6.80;;
3333;SDS011;1679;50.392;8.008;2023-04-25T05:57:37;10.00;;;5.37;;
3333;SDS011;1679;50.392;8.008;2023-04-25T06:00:08;6.97;;;5.53;;
3333;SDS011;1679;50.392;8.008;2023-04-25T06:02:34;10.67;;;5.67;;
3333;SDS011;1679;50.392;8.008;2023-04-25T06:05:00;11.00;;;5.90;;
3333;SDS011;1679;50.392;8.008;2023-04-25T06:07:28;11.20;;;5.50;;
3333;SDS011;1679;50.392;8.008;2023-04-25T06:09:54;8.63;;;5.80;;
3333;SDS011;1679;50.392;8.008;2023-04-25T06:12:20;10.03;;;5.43;;
3333;SDS011;1679;50.392;8.008;2023-04-25T06:14:45;8.37;;;5.27;;
3333;SDS011;1679;50.392;8.008;2023-04-25T06:17:11;12.33;;;5.07;;
3333;SDS011;1679;50.392;8.008;2023-04-25T06:19:36;6.37;;;5.47;;
3333;SDS011;1679;50.392;8.008;2023-04-25T06:22:02;8.10;;;4.97;;
3333;SDS011;1679;50.392;8.008;2023-04-25T06:24:28;5.90;;;5.00;;
3333;SDS011;1679;50.392;8.008;2023-04-25T06:26:54;8.60;;;4.50;;
3333;SDS011;1679;50.392;8.008;2023-04-25T06:29:19;7.43;;;4.27;;
3333;SDS011;1679;50.392;8.008;2023-04-25T06:31:45;7.43;;;4.17;;
3333;SDS011;1679;50.392;8.008;2023-04-25T06:34:11;7.47;;;4.10;;
3333;SDS011;1679;50.392;8.008;2023-04-25T06:36:36;6.17;;;4.13;;
3333;SDS011;1679;50.392;8.008;2023-04-25T06:39:02;7.40;;;4.27;;
3333;SDS011;1679;50.392;8.008;2023-04-25T06:41:27;6.07;;;3.90;;
3333;SDS011;1679;50.392;8.008;2023-04-25T06:43:53;5.10;;;3.80;;
3333;SDS011;1679;50.392;8.008;2023-04-25T06:46:19;5.40;;;4.90;;
3333;SDS011;1679;50.392;8.008;2023-04-25T06:48:44;6.73;;;4.20;;
3333;SDS011;1679;50.392;8.008;2023-04-25T06:51:10;8.73;;;4.90;;
3333;SDS011;1679;50.392;8.008;2023-04-25T06:53:35;8.60;;;5.00;;
3333;SDS011;1679;50.392;8.008;2023-04-25T06:56:01;9.93;;;4.80;;
3333;SDS011;1679;50.392;8.008;2023-04-25T06:58:27;10.33;;;5.17;;
3333;SDS011;1679;50.392;8.008;2023-04-25T07:00:53;8.07;;;4.90;;
3333;SDS011;1679;50.392;8.008;2023-04-25T07:03:19;6.27;;;5.23;;
3333;SDS011;1679;50.392;8.008;2023-04-25T07:05:44;7.20;;;5.80;;
3333;SDS011;1679;50.392;8.008;2023-04-25T07:08:10;6.13;;;5.47;;
3333;SDS011;1679;50.392;8.008;2023-04-25T07:10:36;11.47;;;5.37;;
3333;SDS011;1679;50.392;8.008;2023-04-25T07:13:02;7.40;;;5.00;;
3333;SDS011;1679;50.392;8.008;2023-04-25T07:15:28;12.13;;;5.30;;
3333;SDS011;1679;50.392;8.008;2023-04-25T07:17:54;8.87;;;5.67;;
3333;SDS011;1679;50.392;8.008;2023-04-25T07:20:20;12.17;;;7.03;;
3333;SDS011;1679;50.392;8.008;2023-04-25T07:22:47;8.40;;;6.80;;
3333;SDS011;1679;50.392;8.008;2023-04-25T07:25:12;6.90;;;6.17;;
3333;SDS011;1679;50.392;8.008;2023-04-25T07:27:38;8.40;;;6.37;;
3333;SDS011;1679;50.392;8.008;2023-04-25T07:30:04;14.80;;;6.60;;
3333;SDS011;1679;50.392;8.008;2023-04-25T07:32:32;8.70;;;6.30;;
3333;SDS011;1679;50.392;8.008;2023-04-25T07:34:57;8.27;;;5.63;;
3333;SDS011;1679;50.392;8.008;2023-04-25T07:37:23;10.07;;;7.77;;
3333;SDS011;1679;50.392;8.008;2023-04-25T07:39:48;8.33;;;6.60;;
3333;SDS011;1679;50.392;8.008;2023-04-25T07:42:14;10.70;;;7.00;;
3333;SDS011;1679;50.392;8.008;2023-04-25T07:44:40;10.60;;;6.77;;
3333;SDS011;1679;50.392;8.008;2023-04-25T07:47:06;11.07;;;7.50;;
3333;SDS011;1679;50.392;8.008;2023-04-25T07:49:32;8.67;;;7.30;;
3333;SDS011;1679;50.392;8.008;2023-04-25T07:51:58;11.10;;;7.10;;
3333;SDS011;1679;50.392;8.008;2023-04-25T07:54:24;11.50;;;7.63;;
3333;SDS011;1679;50.392;8.008;2023-04-25T07:56:50;9.90;;;7.47;;
3333;SDS011;1679;50.392;8.008;2023-04-25T07:59:17;10.17;;;6.90;;
3333;SDS011;1679;50.392;8.008;2023-04-25T08:01:42;9.87;;;6.47;;
3333;SDS011;1679;50.392;8.008;2023-04-25T08:04:08;9.50;;;6.53;;
3333;SDS011;1679;50.392;8.008;2023-04-25T08:06:33;8.67;;;6.63;;
3333;SDS011;1679;50.392;8.008;2023-04-25T08:08:59;10.50;;;6.60;;
3333;SDS011;1679;50.392;8.008;2023-04-25T08:11:25;9.57;;;6.30;;
3333;SDS011;1679;50.392;8.008;2023-04-25T08:13:50;9.00;;;5.50;;
3333;SDS011;1679;50.392;8.008;2023-04-25T08:16:16;9.23;;;6.40;;
3333;SDS011;1679;50.392;8.008;2023-04-25T08:18:41;6.90;;;5.90;;
3333;SDS011;1679;50.392;8.008;2023-04-25T08:21:07;8.70;;;6.20;;
3333;SDS011;1679;50.392;8.008;2023-04-25T08:23:36;9.03;;;5.73;;
3333;SDS011;1679;50.392;8.008;2023-04-25T08:26:02;13.90;;;6.10;;
3333;SDS011;1679;50.392;8.008;2023-04-25T08:28:27;9.73;;;5.97;;
3333;SDS011;1679;50.392;8.008;2023-04-25T08:30:53;6.50;;;5.90;;
3333;SDS011;1679;50.392;8.008;2023-04-25T08:33:19;7.90;;;6.10;;
3333;SDS011;1679;50.392;8.008;2023-04-25T08:35:44;9.63;;;5.53;;
3333;SDS011;1679;50.392;8.008;2023-04-25T08:38:10;13.37;;;6.97;;
3333;SDS011;1679;50.392;8.008;2023-04-25T08:40:37;10.73;;;4.73;;
3333;SDS011;1679;50.392;8.008;2023-04-25T08:43:04;9.30;;;6.13;;
3333;SDS011;1679;50.392;8.008;2023-04-25T08:45:36;7.10;;;5.27;;
3333;SDS011;1679;50.392;8.008;2023-04-25T08:48:04;6.23;;;5.63;;
3333;SDS011;1679;50.392;8.008;2023-04-25T08:50:33;8.90;;;6.50;;
3333;SDS011;1679;50.392;8.008;2023-04-25T08:52:59;9.10;;;6.23;;
3333;SDS011;1679;50.392;8.008;2023-04-25T08:55:32;12.07;;;6.00;;
3333;SDS011;1679;50.392;8.008;2023-04-25T08:57:59;10.60;;;6.80;;
3333;SDS011;1679;50.392;8.008;2023-04-25T09:00:25;7.53;;;5.53;;
3333;SDS011;1679;50.392;8.008;2023-04-25T09:02:51;9.13;;;5.60;;
3333;SDS011;1679;50.392;8.008;2023-04-25T09:05:18;10.97;;;5.70;;
3333;SDS011;1679;50.392;8.008;2023-04-25T09:07:43;11.63;;;6.07;;
3333;SDS011;1679;50.392;8.008;2023-04-25T09:10:09;12.47;;;5.83;;
3333;SDS011;1679;50.392;8.008;2023-04-25T09:12:34;8.73;;;5.77;;
3333;SDS011;1679;50.392;8.008;2023-04-25T09:15:10;9.07;;;5.63;;
3333;SDS011;1679;50.392;8.008;2023-04-25T09:17:37;9.17;;;6.27;;
3333;SDS011;1679;50.392;8.008;2023-04-25T09:20:09;11.90;;;7.13;;
3333;SDS011;1679;50.392;8.008;2023-04-25T09:22:36;11.17;;;5.90;;
3333;SDS011;1679;50.392;8.008;2023-04-25T09:25:04;7.60;;;5.30;;
3333;SDS011;1679;50.392;8.008;2023-04-25T09:27:34;14.03;;;5.63;;
3333;SDS011;1679;50.392;8.008;2023-04-25T09:29:59;11.00;;;5.20;;
3333;SDS011;1679;50.392;8.008;2023-04-25T09:32:25;6.70;;;5.00;;
3333;SDS011;1679;50.392;8.008;2023-04-25T09:34:52;6.87;;;4.37;;
3333;SDS011;1679;50.392;8.008;2023-04-25T09:37:19;9.00;;;4.90;;
3333;SDS011;1679;50.392;8.008;2023-04-25T09:39:46;5.83;;;4.70;;
3333;SDS011;1679;50.392;8.008;2023-04-25T09:42:15;9.77;;;5.13;;
3333;SDS011;1679;50.392;8.008;2023-04-25T09:44:42;9.80;;;5.37;;
3333;SDS011;1679;50.392;8.008;2023-04-25T09:47:10;7.63;;;4.23;;
3333;SDS011;1679;50.392;8.008;2023-04-25T09:49:38;8.20;;;4.60;;
3333;SDS011;1679;50.392;8.008;2023-04-25T09:52:06;5.73;;;4.60;;
3333;SDS011;1679;50.392;8.008;2023-04-25T09:54:31;5.90;;;3.97;;
3333;SDS011;1679;50.392;8.008;2023-04-25T09:56:57;11.27;;;5.13;;
3333;SDS011;1679;50.392;8.008;2023-04-25T09:59:25;5.13;;;4.23;;
3333;SDS011;1679;50.392;8.008;2023-04-25T10:01:53;12.80;;;4.30;;
3333;SDS011;1679;50.392;8.008;2023-04-25T10:04:24;5.17;;;3.60;;
3333;SDS011;1679;50.392;8.008;2023-04-25T10:06:52;3.93;;;3.63;;
3333;SDS011;1679;50.392;8.008;2023-04-25T10:09:20;6.93;;;4.03;;
3333;SDS011;1679;50.392;8.008;2023-04-25T10:11:46;6.03;;;4.30;;
3333;SDS011;1679;50.392;8.008;2023-04-25T10:14:15;6.30;;;4.33;;
3333;SDS011;1679;50.392;8.008;2023-04-25T10:16:41;8.40;;;3.67;;
3333;SDS011;1679;50.392;8.008;2023-04-25T10:19:09;6.03;;;3.50;;
3333;SDS011;1679;50.392;8.008;2023-04-25T10:21:36;11.87;;;4.10;;
3333;SDS011;1679;50.392;8.008;2023-04-25T10:24:11;6.27;;;3.40;;
3333;SDS011;1679;50.392;8.008;2023-04-25T10:26:37;14.23;;;6.43;;
3333;SDS011;1679;50.392;8.008;2023-04-25T10:29:03;6.10;;;3.53;;
3333;SDS011;1679;50.392;8.008;2023-04-25T10:31:29;5.83;;;3.40;;
3333;SDS011;1679;50.392;8.008;2023-04-25T10:33:55;4.90;;;4.27;;
3333;SDS011;1679;50.392;8.008;2023-04-25T10:36:22;8.63;;;4.90;;
3333;SDS011;1679;50.392;8.008;2023-04-25T10:38:49;5.87;;;4.20;;
3333;SDS011;1679;50.392;8.008;2023-04-25T10:41:20;4.00;;;3.63;;
3333;SDS011;1679;50.392;8.008;2023-04-25T10:43:47;9.20;;;3.80;;
3333;SDS011;1679;50.392;8.008;2023-04-25T10:48:51;7.67;;;3.80;;
3333;SDS011;1679;50.392;8.008;2023-04-25T10:54:06;5.17;;;3.20;;
3333;SDS011;1679;50.392;8.008;2023-04-25T10:56:36;8.23;;;3.93;;
3333;SDS011;1679;50.392;8.008;2023-04-25T11:01:40;4.17;;;3.43;;
3333;SDS011;1679;50.392;8.008;2023-04-25T11:04:19;6.70;;;3.57;;
3333;SDS011;1679;50.392;8.008;2023-04-25T11:07:16;7.07;;;3.57;;
3333;SDS011;1679;50.392;8.008;2023-04-25T11:09:50;4.13;;;3.10;;
3333;SDS011;1679;50.392;8.008;2023-04-25T11:12:16;5.63;;;3.63;;
3333;SDS011;1679;50.392;8.008;2023-04-25T11:14:42;7.73;;;3.23;;
3333;SDS011;1679;50.392;8.008;2023-04-25T11:17:08;6.07;;;3.40;;
3333;SDS011;1679;50.392;8.008;2023-04-25T11:19:33;6.93;;;3.53;;
3333;SDS011;1679;50.392;8.008;2023-04-25T11:22:00;5.20;;;3.50;;
3333;SDS011;1679;50.392;8.008;2023-04-25T11:24:30;9.43;;;3.63;;
3333;SDS011;1679;50.392;8.008;2023-04-25T11:27:00;6.77;;;3.80;;
3333;SDS011;1679;50.392;8.008;2023-04-25T11:29:29;6.13;;;4.70;;
3333;SDS011;1679;50.392;8.008;2023-04-25T11:31:56;11.00;;;4.80;;
3333;SDS011;1679;50.392;8.008;2023-04-25T11:34:26;7.83;;;4.80;;
3333;SDS011;1679;50.392;8.008;2023-04-25T11:36:52;5.63;;;5.13;;
3333;SDS011;1679;50.392;8.008;2023-04-25T11:39:21;5.63;;;5.00;;
3333;SDS011;1679;50.392;8.008;2023-04-25T11:41:48;9.83;;;5.57;;
3333;SDS011;1679;50.392;8.008;2023-04-25T11:44:17;7.77;;;4.83;;
3333;SDS011;1679;50.392;8.008;2023-04-25T11:46:44;7.97;;;5.10;;
3333;SDS011;1679;50.392;8.008;2023-04-25T11:49:10;6.77;;;6.07;;
3333;SDS011;1679;50.392;8.008;2023-04-25T11:54:05;5.57;;;4.80;;
3333;SDS011;1679;50.392;8.008;2023-04-25T11:56:31;6.13;;;5.47;;
3333;SDS011;1679;50.392;8.008;2023-04-25T11:59:00;9.70;;;5.53;;
3333;SDS011;1679;50.392;8.008;2023-04-25T12:01:38;6.63;;;5.00;;
3333;SDS011;1679;50.392;8.008;2023-04-25T12:04:14;9.27;;;5.50;;
3333;SDS011;1679;50.392;8.008;2023-04-25T12:06:46;7.73;;;5.60;;
3333;SDS011;1679;50.392;8.008;2023-04-25T12:09:16;11.67;;;7.63;;
3333;SDS011;1679;50.392;8.008;2023-04-25T12:11:53;7.20;;;3.87;;
3333;SDS011;1679;50.392;8.008;2023-04-25T12:14:23;7.63;;;4.00;;
3333;SDS011;1679;50.392;8.008;2023-04-25T12:16:52;10.93;;;6.53;;
3333;SDS011;1679;50.392;8.008;2023-04-25T12:19:24;3.80;;;3.50;;
3333;SDS011;1679;50.392;8.008;2023-04-25T12:21:50;10.60;;;4.97;;
3333;SDS011;1679;50.392;8.008;2023-04-25T12:24:17;5.30;;;4.67;;
3333;SDS011;1679;50.392;8.008;2023-04-25T12:26:48;9.90;;;3.67;;
3333;SDS011;1679;50.392;8.008;2023-04-25T12:29:22;7.57;;;3.80;;
3333;SDS011;1679;50.392;8.008;2023-04-25T12:31:49;6.07;;;3.17;;
3333;SDS011;1679;50.392;8.008;2023-04-25T12:34:18;6.53;;;4.00;;
3333;SDS011;1679;50.392;8.008;2023-04-25T12:36:44;5.03;;;3.47;;
3333;SDS011;1679;50.392;8.008;2023-04-25T12:39:23;4.50;;;3.37;;
3333;SDS011;1679;50.392;8.008;2023-04-25T12:41:52;3.40;;;3.13;;
3333;SDS011;1679;50.392;8.008;2023-04-25T12:44:19;5.13;;;3.27;;
3333;SDS011;1679;50.392;8.008;2023-04-25T12:46:45;7.37;;;3.73;;
3333;SDS011;1679;50.392;8.008;2023-04-25T12:49:12;4.70;;;4.30;;
3333;SDS011;1679;50.392;8.008;2023-04-25T12:51:37;6.33;;;3.47;;
3333;SDS011;1679;50.392;8.008;2023-04-25T12:54:03;4.40;;;3.70;;
3333;SDS011;1679;50.392;8.008;2023-04-25T12:56:30;8.77;;;3.93;;
3333;SDS011;1679;50.392;8.008;2023-04-25T12:58:56;7.77;;;4.30;;
3333;SDS011;1679;50.392;8.008;2023-04-25T13:01:22;4.97;;;3.57;;
3333;SDS011;1679;50.392;8.008;2023-04-25T13:03:49;6.30;;;3.90;;
3333;SDS011;1679;50.392;8.008;2023-04-25T13:06:15;3.90;;;3.47;;
3333;SDS011;1679;50.392;8.008;2023-04-25T13:08:42;5.23;;;2.60;;
3333;SDS011;1679;50.392;8.008;2023-04-25T13:11:07;4.90;;;3.10;;
3333;SDS011;1679;50.392;8.008;2023-04-25T13:13:33;6.17;;;2.73;;
3333;SDS011;1679;50.392;8.008;2023-04-25T13:16:03;3.70;;;2.03;;
3333;SDS011;1679;50.392;8.008;2023-04-25T13:18:30;7.33;;;3.30;;
3333;SDS011;1679;50.392;8.008;2023-04-25T13:20:56;8.33;;;3.97;;
3333;SDS011;1679;50.392;8.008;2023-04-25T13:23:22;4.87;;;2.60;;
3333;SDS011;1679;50.392;8.008;2023-04-25T13:25:48;4.67;;;2.77;;
3333;SDS011;1679;50.392;8.008;2023-04-25T13:28:14;5.80;;;2.97;;
3333;SDS011;1679;50.392;8.008;2023-04-25T13:30:40;3.43;;;2.50;;
3333;SDS011;1679;50.392;8.008;2023-04-25T13:33:05;6.40;;;3.13;;
3333;SDS011;1679;50.392;8.008;2023-04-25T13:35:32;5.20;;;3.20;;
3333;SDS011;1679;50.392;8.008;2023-04-25T13:37:59;7.13;;;3.37;;
3333;SDS011;1679;50.392;8.008;2023-04-25T13:40:24;9.73;;;3.30;;
3333;SDS011;1679;50.392;8.008;2023-04-25T13:42:50;6.43;;;3.10;;
3333;SDS011;1679;50.392;8.008;2023-04-25T13:45:16;4.20;;;3.20;;
3333;SDS011;1679;50.392;8.008;2023-04-25T13:47:41;6.30;;;3.97;;
3333;SDS011;1679;50.392;8.008;2023-04-25T13:50:07;4.67;;;3.23;;
3333;SDS011;1679;50.392;8.008;2023-04-25T13:52:33;3.57;;;3.20;;
3333;SDS011;1679;50.392;8.008;2023-04-25T13:54:59;3.70;;;3.30;;
3333;SDS011;1679;50.392;8.008;2023-04-25T13:57:25;6.13;;;3.00;;
3333;SDS011;1679;50.392;8.008;2023-04-25T13:59:51;6.20;;;3.40;;
3333;SDS011;1679;50.392;8.008;2023-04-25T14:02:18;7.87;;;3.17;;
3333;SDS011;1679;50.392;8.008;2023-04-25T14:04:44;6.13;;;3.13;;
3333;SDS011;1679;50.392;8.008;2023-04-25T14:07:09;10.53;;;3.70;;
3333;SDS011;1679;50.392;8.008;2023-04-25T14:09:36;6.77;;;3.40;;
3333;SDS011;1679;50.392;8.008;2023-04-25T14:12:02;5.07;;;3.03;;
3333;SDS011;1679;50.392;8.008;2023-04-25T14:14:28;3.67;;;2.87;;
3333;SDS011;1679;50.392;8.008;2023-04-25T14:16:53;3.90;;;2.40;;
3333;SDS011;1679;50.392;8.008;2023-04-25T14:19:20;6.60;;;2.73;;
3333;SDS011;1679;50.392;8.008;2023-04-25T14:21:46;4.27;;;3.87;;
3333;SDS011;1679;50.392;8.008;2023-04-25T14:24:12;3.50;;;2.57;;
3333;SDS011;1679;50.392;8.008;2023-04-25T14:26:38;4.10;;;3.00;;
3333;SDS011;1679;50.392;8.008;2023-04-25T14:29:05;4.47;;;2.60;;
3333;SDS011;1679;50.392;8.008;2023-04-25T14:31:32;5.03;;;2.60;;
3333;SDS011;1679;50.392;8.008;2023-04-25T14:33:58;6.40;;;3.33;;
3333;SDS011;1679;50.392;8.008;2023-04-25T14:36:23;2.30;;;2.10;;
3333;SDS011;1679;50.392;8.008;2023-04-25T14:38:49;5.30;;;2.67;;
3333;SDS011;1679;50.392;8.008;2023-04-25T14:41:14;3.03;;;2.70;;
3333;SDS011;1679;50.392;8.008;2023-04-25T14:43:40;6.13;;;3.97;;
3333;SDS011;1679;50.392;8.008;2023-04-25T14:46:06;2.73;;;2.00;;
3333;SDS011;1679;50.392;8.008;2023-04-25T14:48:31;5.20;;;2.80;;
3333;SDS011;1679;50.392;8.008;2023-04-25T14:50:57;3.20;;;2.57;;
3333;SDS011;1679;50.392;8.008;2023-04-25T14:53:24;7.47;;;2.73;;
3333;SDS011;1679;50.392;8.008;2023-04-25T14:55:50;4.23;;;2.43;;
3333;SDS011;1679;50.392;8.008;2023-04-25T14:58:16;3.70;;;2.53;;
3333;SDS011;1679;50.392;8.008;2023-04-25T15:00:41;10.70;;;3.30;;
3333;SDS011;1679;50.392;8.008;2023-04-25T15:03:08;3.27;;;2.97;;
3333;SDS011;1679;50.392;8.008;2023-04-25T15:05:36;4.87;;;2.90;;
3333;SDS011;1679;50.392;8.008;2023-04-25T15:08:02;4.07;;;2.50;;
3333;SDS011;1679;50.392;8.008;2023-04-25T15:10:28;5.67;;;2.30;;
3333;SDS011;1679;50.392;8.008;2023-04-25T15:12:53;2.53;;;1.97;;
3333;SDS011;1679;50.392;8.008;2023-04-25T15:15:20;3.70;;;2.30;;